Archer, Wyoming
Current Conditions -  °F | °C
As of 1:53 AM on Monday 20 Oct 2014 (Local Time) from KCYS Reporting Station
Clear Clear  
Wind Chill:   Ceiling: Unl
Heat Index:   Visibility: 10mi
Dew Point:   Wind: 6mph
Humidity: 71%   Direction: 270°W
Pressure: 30.2"   Gusts: NA
Location:  41.4091°N, 104.861°W
Report Text: KCYS 200753Z AUTO 27005KT 10SM CLR 06/01 A3020 RMK AO2 SLP169 T00610011
Loading
Personal Weather Stations






























Interactive Weather Map
Tropical Storm Tracking
New forecast layout! Learn more

10-Day Weather Forecast

Advertisements
Track Severe Weather on mobile